Time;durP1;ratioP1;P1;durP2;ratioP2;P2;SDS_P1;SDS_P2;PMS_P1;PMS_P2;Temp;Humidity;BMP_temperature;BMP_pressure;BME280_temperature;BME280_humidity;BME280_pressure;Samples;Min_cycle;Max_cycle;Signal;HPM_P1;HPM_P2
2023/07/01 00:02:04;;;;;;;14.45;10.65;;;;;;;14.18;98.03;97454.09;4957762;28;20050;-71
2023/07/01 00:04:30;;;;;;;12.77;10.43;;;;;;;14.22;97.73;97456.41;4957417;28;20042;-70
2023/07/01 00:06:56;;;;;;;14.05;10.40;;;;;;;14.27;97.55;97456.66;4957494;28;20069;-70
2023/07/01 00:09:21;;;;;;;13.15;10.63;;;;;;;14.32;97.69;97451.59;4957483;28;20049;-69
2023/07/01 00:11:47;;;;;;;14.13;10.55;;;;;;;14.37;97.83;97455.34;4955957;28;20046;-69
2023/07/01 00:14:12;;;;;;;13.27;10.00;;;;;;;14.42;97.68;97457.50;4938341;28;20517;-70
2023/07/01 00:16:39;;;;;;;13.93;10.02;;;;;;;14.46;97.96;97451.56;4949306;28;20126;-70
2023/07/01 00:19:05;;;;;;;10.65;9.13;;;;;;;14.49;98.07;97453.88;4958006;28;20046;-70
2023/07/01 00:21:30;;;;;;;10.45;9.07;;;;;;;14.54;97.73;97456.03;4957289;28;20134;-70
2023/07/01 00:23:55;;;;;;;11.50;9.15;;;;;;;14.55;97.49;97455.00;4955905;28;20049;-69
2023/07/01 00:26:20;;;;;;;14.55;9.32;;;;;;;14.59;97.87;97456.28;4957137;28;20050;-70
2023/07/01 00:28:45;;;;;;;11.35;8.57;;;;;;;14.63;97.86;97454.88;4957223;28;20053;-70
2023/07/01 00:31:11;;;;;;;12.77;9.32;;;;;;;14.66;97.57;97453.69;4956636;28;20046;-69
2023/07/01 00:33:36;;;;;;;10.60;9.18;;;;;;;14.68;97.47;97455.13;4939830;28;20050;-69
2023/07/01 00:36:01;;;;;;;12.57;9.90;;;;;;;14.68;97.57;97447.09;4956837;28;20057;-70
2023/07/01 00:38:27;;;;;;;13.23;9.85;;;;;;;14.75;97.82;97450.69;4957817;28;20046;-72
2023/07/01 00:40:52;;;;;;;11.50;9.27;;;;;;;14.78;97.72;97436.91;4957059;28;20061;-67
2023/07/01 00:43:17;;;;;;;10.55;8.63;;;;;;;14.80;97.56;97442.06;4955330;28;20049;-67
2023/07/01 00:45:44;;;;;;;12.82;8.98;;;;;;;14.82;97.47;97445.38;4955872;28;20046;-68
2023/07/01 00:48:23;;;;;;;12.02;8.63;;;;;;;14.89;97.47;97454.38;4955307;28;20046;-68
2023/07/01 00:50:49;;;;;;;12.35;8.85;;;;;;;14.86;97.45;97444.00;4955614;28;20057;-69
2023/07/01 00:53:14;;;;;;;9.85;8.18;;;;;;;14.88;97.27;97441.97;4956768;28;20046;-67
2023/07/01 00:55:39;;;;;;;10.15;8.77;;;;;;;14.89;97.44;97438.25;4955855;28;20416;-67
2023/07/01 00:58:04;;;;;;;11.45;8.50;;;;;;;14.93;97.26;97444.06;4956300;28;20053;-68
2023/07/01 01:00:30;;;;;;;11.70;8.75;;;;;;;14.94;97.08;97448.41;4954867;28;20046;-67
2023/07/01 01:02:58;;;;;;;9.95;8.45;;;;;;;14.97;97.21;97438.13;4954597;28;20050;-69
2023/07/01 01:05:35;;;;;;;12.43;8.98;;;;;;;15.00;97.29;97456.53;4956367;28;20049;-68
2023/07/01 01:08:42;;;;;;;10.13;8.38;;;;;;;15.07;97.23;97446.69;4972039;28;20050;-69
2023/07/01 01:11:09;;;;;;;12.70;8.27;;;;;;;15.04;97.00;97448.91;4956367;28;20050;-67
2023/07/01 01:13:35;;;;;;;17.13;8.45;;;;;;;15.03;97.15;97445.41;4953709;28;20050;-70
2023/07/01 01:16:03;;;;;;;11.15;8.57;;;;;;;15.05;97.01;97448.72;4955651;28;20054;-68
2023/07/01 01:18:31;;;;;;;12.75;9.00;;;;;;;15.07;97.05;97402.94;4956237;28;20050;-71
2023/07/01 01:20:58;;;;;;;11.55;8.82;;;;;;;15.07;96.96;97446.69;4943284;28;20050;-71
2023/07/01 01:23:38;;;;;;;12.32;8.55;;;;;;;15.13;97.09;97466.56;4971103;28;20054;-70
2023/07/01 01:26:09;;;;;;;11.63;9.18;;;;;;;15.12;97.07;97438.09;4968669;28;20051;-71
2023/07/01 01:28:35;;;;;;;11.82;8.63;;;;;;;15.14;97.21;97447.56;4965443;28;20050;-72
2023/07/01 01:31:01;;;;;;;13.43;9.30;;;;;;;15.17;97.17;97446.38;4953807;28;20069;-71
2023/07/01 01:33:26;;;;;;;10.30;8.32;;;;;;;15.19;97.16;97444.34;4955836;28;20054;-72
2023/07/01 01:35:59;;;;;;;12.98;9.05;;;;;;;15.22;97.04;97438.59;4970451;28;20045;-71
2023/07/01 01:38:31;;;;;;;12.02;8.82;;;;;;;15.24;97.32;97439.19;4943233;28;20512;-71
2023/07/01 01:41:06;;;;;;;11.55;8.90;;;;;;;15.25;97.05;97460.50;4955843;28;20041;-72
2023/07/01 01:44:03;;;;;;;12.55;9.05;;;;;;;15.33;97.27;97443.44;4955565;28;20045;-72
2023/07/01 01:46:29;;;;;;;14.65;8.45;;;;;;;15.30;96.96;97451.88;4958766;28;20046;-71
2023/07/01 01:48:57;;;;;;;11.68;9.10;;;;;;;15.31;97.22;97436.59;4955383;28;20037;-72
2023/07/01 01:51:24;;;;;;;14.02;8.85;;;;;;;15.33;97.08;97435.38;4942793;28;20413;-73
2023/07/01 01:53:52;;;;;;;13.57;10.27;;;;;;;15.36;97.22;97434.13;4955462;28;20041;-73
2023/07/01 01:56:18;;;;;;;9.80;8.77;;;;;;;15.36;96.88;97434.13;4970572;28;20054;-70
2023/07/01 01:58:43;;;;;;;11.43;8.65;;;;;;;15.36;96.96;97437.66;4968159;28;20057;-69
2023/07/01 02:01:09;;;;;;;11.80;9.23;;;;;;;15.38;96.61;97432.94;4954075;28;20506;-71
2023/07/01 02:03:34;;;;;;;11.45;9.55;;;;;;;15.41;96.76;97431.72;4955274;28;20038;-70
2023/07/01 02:05:59;;;;;;;12.05;8.80;;;;;;;15.43;96.72;97435.03;4970356;28;20042;-71
2023/07/01 02:08:25;;;;;;;11.70;9.15;;;;;;;15.43;96.54;97445.78;4974337;28;20509;-72
2023/07/01 02:10:50;;;;;;;10.55;9.35;;;;;;;15.45;96.54;97428.47;4958894;28;20050;-72
2023/07/01 02:13:16;;;;;;;10.98;8.60;;;;;;;15.49;96.55;97466.47;4957922;28;20045;-72
2023/07/01 02:15:41;;;;;;;18.73;9.68;;;;;;;15.50;96.36;97452.88;4959328;28;20512;-72
2023/07/01 02:18:08;;;;;;;12.10;8.23;;;;;;;15.54;96.26;97432.69;4974167;28;20035;-72
2023/07/01 02:20:37;;;;;;;10.77;8.98;;;;;;;15.55;96.27;97445.09;4960250;28;20050;-68
2023/07/01 02:23:02;;;;;;;10.32;9.23;;;;;;;15.58;96.25;97449.22;4958469;28;20038;-70
2023/07/01 02:25:27;;;;;;;13.13;8.70;;;;;;;15.61;96.15;97438.94;4960509;28;20081;-70
2023/07/01 02:27:53;;;;;;;11.40;9.45;;;;;;;15.64;96.27;97432.34;4959238;28;20053;-69
2023/07/01 02:30:18;;;;;;;11.27;9.02;;;;;;;15.69;96.14;97429.09;4958504;28;20046;-69
2023/07/01 02:32:43;;;;;;;13.35;8.75;;;;;;;15.72;96.09;97428.69;4959215;28;20818;-66
2023/07/01 02:35:08;;;;;;;10.20;8.15;;;;;;;15.76;95.97;97440.69;4973817;28;20061;-67
2023/07/01 02:37:34;;;;;;;10.68;8.82;;;;;;;15.79;95.64;97435.78;4940970;28;20042;-68
2023/07/01 02:39:59;;;;;;;12.50;8.75;;;;;;;15.82;95.58;97430.00;4959034;28;20046;-69
2023/07/01 02:42:24;;;;;;;12.18;8.52;;;;;;;15.86;95.61;97443.88;4958944;28;20046;-68
2023/07/01 02:44:49;;;;;;;10.98;8.50;;;;;;;15.90;95.59;97431.72;4956899;28;20054;-68
2023/07/01 02:47:16;;;;;;;13.25;9.38;;;;;;;15.96;95.46;97447.03;4957314;28;20049;-69
2023/07/01 02:49:43;;;;;;;10.88;8.60;;;;;;;16.00;95.44;97468.97;4956929;28;20057;-68
2023/07/01 02:52:11;;;;;;;12.60;9.48;;;;;;;16.05;95.45;97451.22;4957817;28;20413;-69
2023/07/01 02:54:41;;;;;;;11.30;8.13;;;;;;;16.08;95.35;97448.16;4957977;28;20053;-70
2023/07/01 02:57:08;;;;;;;13.25;8.95;;;;;;;16.09;95.23;97444.44;4957387;28;20154;-69
2023/07/01 02:59:33;;;;;;;9.38;7.85;;;;;;;16.12;95.01;97448.59;4957142;28;20049;-68
2023/07/01 03:01:58;;;;;;;9.10;8.18;;;;;;;16.12;94.54;97445.91;4958430;28;20069;-69
2023/07/01 03:04:24;;;;;;;10.57;8.63;;;;;;;16.12;94.60;97446.72;4957275;28;20521;-69
2023/07/01 03:06:49;;;;;;;10.75;8.68;;;;;;;16.12;94.35;97452.13;4957261;28;20057;-68
2023/07/01 03:09:14;;;;;;;12.60;8.32;;;;;;;16.12;94.30;97462.03;4958325;28;20053;-69
2023/07/01 03:11:39;;;;;;;11.13;8.57;;;;;;;16.13;94.15;97420.69;4957182;28;20054;-70
2023/07/01 03:14:05;;;;;;;13.68;9.23;;;;;;;16.15;94.34;97449.00;4956505;28;20057;-67
2023/07/01 03:16:33;;;;;;;10.35;8.48;;;;;;;16.15;94.26;97443.63;4973735;28;20050;-67
2023/07/01 03:18:58;;;;;;;9.88;8.45;;;;;;;16.17;94.08;97432.69;4956974;28;20129;-67
2023/07/01 03:21:25;;;;;;;12.25;8.50;;;;;;;16.19;94.19;97442.22;4958640;28;20042;-67
2023/07/01 03:23:50;;;;;;;11.90;8.75;;;;;;;16.24;94.00;97439.78;4958054;28;20061;-67
2023/07/01 03:26:16;;;;;;;11.93;8.68;;;;;;;16.30;94.16;97433.59;4973502;28;20046;-66
2023/07/01 03:28:42;;;;;;;12.57;9.20;;;;;;;16.36;94.09;97447.28;4956979;28;20493;-68
2023/07/01 03:31:07;;;;;;;17.67;8.85;;;;;;;16.38;94.02;97450.56;4956548;28;20042;-71
2023/07/01 03:33:34;;;;;;;10.45;8.50;;;;;;;16.39;93.67;97453.06;4972905;28;20046;-71
2023/07/01 03:35:59;;;;;;;12.48;9.88;;;;;;;16.39;93.67;97453.06;4957475;28;20038;-72
2023/07/01 03:38:24;;;;;;;11.43;9.02;;;;;;;16.40;93.75;97462.78;4957542;28;20057;-71
2023/07/01 03:40:50;;;;;;;10.20;8.68;;;;;;;16.45;93.65;97413.81;4957767;28;20038;-71
2023/07/01 03:43:15;;;;;;;10.18;9.05;;;;;;;16.54;93.63;97455.63;4955917;28;20058;-71
2023/07/01 03:45:40;;;;;;;9.90;8.57;;;;;;;16.69;93.44;97437.50;4956269;28;20046;-72
2023/07/01 03:48:06;;;;;;;14.23;9.02;;;;;;;16.73;93.47;97443.31;4924205;28;20065;-71
2023/07/01 03:50:31;;;;;;;10.10;8.23;;;;;;;16.74;93.26;97445.78;4939653;28;20061;-72
2023/07/01 03:52:56;;;;;;;11.75;8.88;;;;;;;16.84;92.67;97446.22;4957656;28;20053;-71
2023/07/01 03:55:21;;;;;;;10.95;8.90;;;;;;;16.92;92.49;97454.16;4955830;28;20054;-71
2023/07/01 03:57:46;;;;;;;9.98;8.48;;;;;;;17.06;92.46;97439.66;4957866;28;20838;-70
2023/07/01 04:00:18;;;;;;;10.55;8.18;;;;;;;17.30;92.72;97450.88;4957439;28;20049;-71
2023/07/01 04:02:48;;;;;;;9.68;8.68;;;;;;;17.48;92.07;97443.06;4957482;28;20050;-71
2023/07/01 04:05:13;;;;;;;9.75;8.02;;;;;;;17.68;91.49;97425.03;4957563;28;20046;-71
2023/07/01 04:07:43;;;;;;;9.32;8.23;;;;;;;18.02;90.90;97423.97;4955390;28;20049;-71
2023/07/01 04:10:10;;;;;;;11.30;8.65;;;;;;;18.35;90.11;97423.84;4957459;28;20042;-71
2023/07/01 04:12:37;;;;;;;12.27;7.95;;;;;;;18.65;89.12;97444.94;4957300;28;20061;-71
2023/07/01 04:15:03;;;;;;;10.10;7.22;;;;;;;18.77;88.29;97427.84;4972432;28;20505;-71
2023/07/01 04:17:31;;;;;;;10.82;7.70;;;;;;;18.89;87.44;97430.69;4955211;28;20500;-71
2023/07/01 04:19:56;;;;;;;9.35;7.47;;;;;;;18.98;86.34;97433.97;4956149;28;20046;-71
2023/07/01 04:22:22;;;;;;;9.23;7.10;;;;;;;19.06;85.41;97437.28;4957580;28;20050;-72
2023/07/01 04:24:48;;;;;;;12.05;8.27;;;;;;;19.20;84.46;97433.41;4955944;28;20704;-71
2023/07/01 04:27:14;;;;;;;13.32;7.57;;;;;;;19.37;84.14;97443.72;4957085;28;20049;-72
2023/07/01 04:29:39;;;;;;;8.98;7.38;;;;;;;19.45;83.07;97457.78;4950753;28;20051;-72
2023/07/01 04:32:06;;;;;;;9.43;7.68;;;;;;;19.48;82.12;97429.50;4954806;28;20041;-72
2023/07/01 04:34:31;;;;;;;8.85;7.38;;;;;;;19.49;82.34;97437.41;4957201;28;20046;-73
2023/07/01 04:36:56;;;;;;;10.95;7.10;;;;;;;19.46;81.34;97442.38;4956969;28;20049;-72
2023/07/01 04:39:22;;;;;;;10.90;7.22;;;;;;;19.37;80.83;97438.31;4956940;28;20046;-68
2023/07/01 04:41:48;;;;;;;7.70;6.90;;;;;;;19.40;80.59;97427.06;4954898;28;20433;-68
2023/07/01 04:44:13;;;;;;;8.88;7.32;;;;;;;19.47;80.65;97439.47;4956528;28;20054;-68
2023/07/01 04:46:39;;;;;;;9.90;7.40;;;;;;;19.65;80.62;97443.31;4939331;28;20038;-68
2023/07/01 04:49:04;;;;;;;9.25;7.00;;;;;;;19.76;78.81;97443.41;4954693;28;20413;-67
2023/07/01 04:51:30;;;;;;;8.77;7.57;;;;;;;19.83;78.62;97449.59;4956670;28;20057;-72
2023/07/01 04:53:55;;;;;;;10.57;7.93;;;;;;;19.78;77.93;97435.91;4939236;28;20386;-72
2023/07/01 04:56:23;;;;;;;10.45;7.35;;;;;;;19.78;78.29;97435.91;4955204;28;20050;-71
2023/07/01 04:58:49;;;;;;;10.63;8.23;;;;;;;19.93;78.62;97449.94;4956544;28;20046;-71
2023/07/01 05:01:14;;;;;;;11.13;7.72;;;;;;;20.20;78.81;97450.47;4956308;28;20046;-72
2023/07/01 05:03:39;;;;;;;9.02;6.78;;;;;;;20.43;77.71;97438.22;4956433;28;20054;-72
2023/07/01 05:06:04;;;;;;;8.40;7.40;;;;;;;20.43;76.17;97449.06;4954947;28;20050;-71
2023/07/01 05:08:29;;;;;;;9.57;6.90;;;;;;;20.37;76.04;97449.94;4955312;28;20062;-70
2023/07/01 05:10:55;;;;;;;9.82;7.55;;;;;;;20.54;76.99;97446.38;4956500;28;20057;-72
2023/07/01 05:13:20;;;;;;;11.63;8.55;;;;;;;20.66;76.02;97470.81;4956204;28;20532;-70
2023/07/01 05:15:45;;;;;;;10.20;8.05;;;;;;;20.60;73.97;97413.00;4956117;28;20046;-72
2023/07/01 05:18:10;;;;;;;9.77;6.93;;;;;;;20.46;74.84;97454.00;4956142;28;20045;-71
2023/07/01 05:20:35;;;;;;;8.88;7.63;;;;;;;20.31;75.25;97452.44;4954816;28;20057;-68
2023/07/01 05:23:00;;;;;;;11.07;8.23;;;;;;;20.21;74.79;97456.72;4956288;28;20069;-70
2023/07/01 05:25:26;;;;;;;12.35;7.35;;;;;;;20.08;74.62;97448.75;4954550;28;20054;-73
2023/07/01 05:27:51;;;;;;;10.57;7.95;;;;;;;19.97;75.75;97452.19;4955950;28;20069;-71
2023/07/01 05:30:16;;;;;;;10.85;8.13;;;;;;;19.85;75.30;97457.50;4955850;28;20042;-72
2023/07/01 05:32:41;;;;;;;9.93;8.27;;;;;;;19.80;75.93;97455.44;4954448;28;20065;-71
2023/07/01 05:35:07;;;;;;;10.13;7.63;;;;;;;19.78;76.36;97459.41;4954762;28;20046;-72
2023/07/01 05:37:32;;;;;;;10.88;7.45;;;;;;;19.94;77.09;97457.00;4954773;28;20058;-71
2023/07/01 05:39:57;;;;;;;12.32;7.68;;;;;;;20.09;76.66;97470.16;4956150;28;20068;-72
2023/07/01 05:42:22;;;;;;;9.40;7.63;;;;;;;20.18;76.70;97455.31;4955697;28;20413;-72
2023/07/01 05:44:47;;;;;;;12.45;7.32;;;;;;;20.26;74.88;97465.00;4955886;28;20042;-72
2023/07/01 05:47:13;;;;;;;10.10;7.40;;;;;;;20.78;75.58;97457.34;4954094;28;20069;-72
2023/07/01 05:49:38;;;;;;;9.30;7.38;;;;;;;21.57;73.76;97457.09;4955632;28;20046;-72
2023/07/01 05:52:03;;;;;;;8.77;6.70;;;;;;;22.32;71.94;97464.63;4954020;28;20069;-72
2023/07/01 05:54:29;;;;;;;17.77;7.47;;;;;;;22.60;69.00;97456.53;4955962;28;20034;-72
2023/07/01 05:56:54;;;;;;;9.82;7.68;;;;;;;22.65;67.20;97432.22;4970648;28;20057;-71
2023/07/01 05:59:19;;;;;;;9.60;6.97;;;;;;;22.88;66.66;97454.97;4955801;28;20042;-71
2023/07/01 06:01:44;;;;;;;9.50;6.72;;;;;;;23.20;67.22;97477.91;4954298;28;20481;-72
2023/07/01 06:04:09;;;;;;;7.78;6.25;;;;;;;24.03;66.06;97450.00;4955281;28;20042;-72
2023/07/01 06:06:35;;;;;;;9.32;6.95;;;;;;;24.48;62.81;97460.78;4955999;28;20046;-72
2023/07/01 06:09:00;;;;;;;8.20;6.35;;;;;;;24.47;61.73;97482.81;4955787;28;20049;-72
2023/07/01 06:11:25;;;;;;;7.25;6.35;;;;;;;24.36;61.08;97454.59;4955544;28;20049;-72
2023/07/01 06:13:50;;;;;;;8.07;6.28;;;;;;;24.32;60.60;97466.25;4954194;28;20050;-72
2023/07/01 06:16:17;;;;;;;6.95;6.20;;;;;;;24.14;61.00;97467.31;4954236;28;20409;-72
2023/07/01 06:18:42;;;;;;;8.55;6.90;;;;;;;24.11;60.68;97465.09;4955365;28;20065;-74
2023/07/01 06:21:08;;;;;;;11.68;7.80;;;;;;;24.18;59.75;97469.28;4954260;28;20046;-72
2023/07/01 06:23:35;;;;;;;11.25;6.10;;;;;;;24.44;59.97;97466.97;4953899;28;20054;-73
2023/07/01 06:26:00;;;;;;;8.98;7.15;;;;;;;24.78;59.64;97473.97;4953742;28;20069;-71
2023/07/01 06:28:25;;;;;;;9.93;6.93;;;;;;;25.63;58.62;97462.41;4955326;28;20049;-72
2023/07/01 06:30:51;;;;;;;10.60;6.82;;;;;;;27.02;55.80;97454.91;4955042;28;20054;-71
2023/07/01 06:33:16;;;;;;;8.25;6.97;;;;;;;27.76;52.77;97457.28;4955829;28;20707;-73
2023/07/01 06:35:43;;;;;;;9.45;6.93;;;;;;;28.54;50.92;97450.41;4954568;28;20042;-72
2023/07/01 06:38:08;;;;;;;8.50;6.88;;;;;;;29.02;47.85;97461.75;4955327;28;20536;-72
2023/07/01 06:40:33;;;;;;;8.48;6.40;;;;;;;28.80;48.46;97453.06;4954185;28;20065;-71
2023/07/01 06:42:58;;;;;;;9.02;6.63;;;;;;;28.18;48.88;97440.59;4955114;28;20600;-67
2023/07/01 06:45:24;;;;;;;8.88;7.30;;;;;;;27.54;50.48;97452.00;4955068;28;20042;-67
2023/07/01 06:47:49;;;;;;;9.13;6.32;;;;;;;26.85;50.93;97446.88;4954944;28;20525;-66
2023/07/01 06:50:14;;;;;;;10.68;7.00;;;;;;;26.21;52.63;97443.47;4954587;28;20045;-67
2023/07/01 06:52:40;;;;;;;8.52;7.10;;;;;;;25.94;53.75;97451.78;4956077;28;20042;-66
2023/07/01 06:55:05;;;;;;;9.00;7.40;;;;;;;26.28;53.45;97449.59;4956552;28;20515;-68
2023/07/01 06:57:30;;;;;;;15.25;6.72;;;;;;;26.31;53.10;97460.78;4958464;28;20053;-67
2023/07/01 06:59:55;;;;;;;11.02;6.20;;;;;;;26.76;52.13;97448.47;4958628;28;20057;-68
2023/07/01 07:02:21;;;;;;;10.23;5.72;;;;;;;26.95;50.97;97443.41;4956635;28;20421;-67
2023/07/01 07:04:46;;;;;;;12.52;6.47;;;;;;;28.43;49.26;97442.47;4958501;28;20054;-67
2023/07/01 07:07:11;;;;;;;13.85;6.85;;;;;;;29.05;46.67;97439.25;4958584;28;20497;-67
2023/07/01 07:09:36;;;;;;;8.30;6.65;;;;;;;29.75;45.26;97436.38;4956393;28;20409;-68
2023/07/01 07:12:01;;;;;;;7.40;6.60;;;;;;;29.32;44.55;97399.59;4957527;28;20818;-67
2023/07/01 07:14:27;;;;;;;8.48;7.45;;;;;;;28.46;45.68;97419.97;4957208;28;20054;-67
2023/07/01 07:16:52;;;;;;;12.50;7.47;;;;;;;27.54;47.95;97446.53;4958369;28;20059;-68
2023/07/01 07:19:18;;;;;;;9.00;7.65;;;;;;;26.76;49.81;97441.09;4958268;28;20599;-67
2023/07/01 07:21:43;;;;;;;13.15;7.90;;;;;;;26.20;50.94;97459.03;4958139;28;20046;-67
2023/07/01 07:24:09;;;;;;;11.48;7.47;;;;;;;25.64;51.33;97406.75;4958288;28;20077;-68
2023/07/01 07:26:34;;;;;;;12.88;7.72;;;;;;;25.25;52.36;97446.19;4957849;28;20046;-67
2023/07/01 07:29:01;;;;;;;11.02;6.82;;;;;;;24.87;53.23;97460.72;4958020;28;20066;-67
2023/07/01 07:31:27;;;;;;;10.15;6.65;;;;;;;24.68;54.25;97452.03;4955942;28;20050;-68
2023/07/01 07:33:52;;;;;;;10.32;6.53;;;;;;;24.58;54.71;97469.06;4958253;28;20130;-68
2023/07/01 07:36:17;;;;;;;15.93;7.47;;;;;;;25.00;54.41;97446.72;4957813;28;20038;-69
2023/07/01 07:38:43;;;;;;;8.98;7.95;;;;;;;26.78;51.77;97449.03;4956666;28;20144;-67
2023/07/01 07:41:09;;;;;;;8.07;6.88;;;;;;;27.75;48.87;97442.78;4940264;28;20050;-67
2023/07/01 07:43:34;;;;;;;10.52;7.43;;;;;;;28.24;47.76;97436.72;4957960;28;20050;-68
2023/07/01 07:46:00;;;;;;;13.50;7.18;;;;;;;30.00;45.21;97391.41;4958135;28;20038;-66
2023/07/01 07:48:25;;;;;;;8.10;6.57;;;;;;;32.10;41.71;97378.94;4957917;28;20038;-67
2023/07/01 07:50:50;;;;;;;7.88;7.00;;;;;;;34.05;38.64;97387.19;4957489;28;20053;-68
2023/07/01 07:53:15;;;;;;;9.32;7.70;;;;;;;35.56;35.77;97378.41;4972793;28;20053;-68
2023/07/01 07:55:42;;;;;;;14.05;6.90;;;;;;;35.24;34.27;97390.75;4957646;28;20046;-68
2023/07/01 07:58:08;;;;;;;9.23;7.57;;;;;;;33.86;35.24;97431.59;4955847;28;20077;-68
2023/07/01 08:00:33;;;;;;;12.40;7.65;;;;;;;32.41;37.27;97437.13;4957656;28;20528;-67
2023/07/01 08:02:58;;;;;;;8.38;7.53;;;;;;;30.97;39.16;97441.50;4957522;28;20053;-68
2023/07/01 08:05:26;;;;;;;11.57;8.27;;;;;;;30.79;40.50;97434.03;4956464;28;20046;-68
2023/07/01 08:07:51;;;;;;;8.07;7.28;;;;;;;32.29;39.20;97382.47;4957237;28;20042;-67
2023/07/01 08:10:16;;;;;;;12.00;7.38;;;;;;;34.42;36.06;97390.66;4957373;28;20053;-67
2023/07/01 08:12:42;;;;;;;7.72;6.88;;;;;;;36.33;32.93;97387.81;4957384;28;20050;-67
2023/07/01 08:15:09;;;;;;;11.70;7.50;;;;;;;38.12;30.05;97381.44;4957254;28;20049;-74
2023/07/01 08:17:34;;;;;;;8.35;7.50;;;;;;;38.92;29.18;97382.94;4956158;28;20047;-73
2023/07/01 08:19:59;;;;;;;10.05;8.20;;;;;;;39.81;28.02;97378.94;4957270;28;20042;-74
2023/07/01 08:22:24;;;;;;;10.55;8.38;;;;;;;40.60;26.51;97377.13;4940015;28;20058;-73
2023/07/01 08:24:49;;;;;;;9.07;8.27;;;;;;;41.06;25.97;97387.84;4957337;28;20101;-74
2023/07/01 08:27:15;;;;;;;10.15;8.20;;;;;;;41.12;25.90;97387.22;4955283;28;20050;-74
2023/07/01 08:29:40;;;;;;;12.73;8.30;;;;;;;41.45;25.58;97388.75;4957092;28;20042;-72
2023/07/01 08:32:05;;;;;;;8.98;8.05;;;;;;;42.21;24.42;97387.16;4955700;28;20118;-74
2023/07/01 08:34:32;;;;;;;9.18;8.13;;;;;;;43.07;23.54;97379.88;4956823;28;20046;-75
2023/07/01 08:36:57;;;;;;;10.43;9.35;;;;;;;43.15;22.76;97391.19;4956801;28;20042;-73
2023/07/01 08:39:24;;;;;;;10.18;9.02;;;;;;;42.71;23.39;97388.88;4954796;28;20054;-73
2023/07/01 08:41:57;;;;;;;9.35;8.50;;;;;;;41.82;24.35;97384.38;4956746;28;20049;-72
2023/07/01 08:44:23;;;;;;;9.60;8.80;;;;;;;40.89;24.64;97380.63;4956897;28;20169;-74
2023/07/01 08:46:52;;;;;;;12.02;7.65;;;;;;;39.37;25.44;97391.13;4956630;28;20042;-73
2023/07/01 08:49:22;;;;;;;11.50;8.32;;;;;;;37.49;27.01;97385.38;4956666;28;20069;-73
2023/07/01 08:51:54;;;;;;;8.43;7.63;;;;;;;35.91;29.21;97381.16;4956726;28;20042;-75
2023/07/01 08:54:20;;;;;;;9.57;8.65;;;;;;;36.25;30.10;97375.56;4955361;28;20038;-74
2023/07/01 08:56:48;;;;;;;9.57;8.50;;;;;;;37.93;27.68;97367.16;4955411;28;20050;-74
2023/07/01 08:59:14;;;;;;;9.35;7.65;;;;;;;39.81;26.11;97373.34;4954574;28;20129;-75
2023/07/01 09:01:42;;;;;;;8.52;7.40;;;;;;;40.44;24.82;97367.13;4956478;28;20057;-72
2023/07/01 09:04:08;;;;;;;8.93;7.85;;;;;;;39.42;25.69;97371.38;4956364;28;20041;-74
2023/07/01 09:06:33;;;;;;;9.18;8.20;;;;;;;39.01;25.85;97373.31;4956628;28;20076;-74
2023/07/01 09:08:58;;;;;;;13.40;8.80;;;;;;;39.49;25.82;97374.41;4956244;28;20405;-73
2023/07/01 09:11:23;;;;;;;12.68;8.80;;;;;;;40.08;25.65;97368.94;4956630;28;20068;-73
2023/07/01 09:13:55;;;;;;;11.63;8.32;;;;;;;39.95;25.56;97377.75;4956368;28;20042;-74
2023/07/01 09:16:32;;;;;;;9.98;8.98;;;;;;;40.08;25.48;97376.50;4956082;28;20042;-74
2023/07/01 09:19:07;;;;;;;10.35;9.25;;;;;;;41.13;24.71;97377.66;4956245;28;20046;-73
2023/07/01 09:21:33;;;;;;;11.05;9.95;;;;;;;42.26;23.47;97358.84;4956253;28;20049;-74
2023/07/01 09:24:00;;;;;;;12.85;10.77;;;;;;;42.76;22.62;97360.56;4956639;28;20050;-72
2023/07/01 09:26:27;;;;;;;18.52;10.38;;;;;;;43.62;21.62;97371.06;4956116;28;20062;-73
2023/07/01 09:28:53;;;;;;;15.52;10.70;;;;;;;42.97;21.96;97368.50;4954887;28;20041;-73
2023/07/01 09:31:19;;;;;;;15.75;10.15;;;;;;;43.26;21.84;97367.75;4956172;28;20057;-71
2023/07/01 09:33:59;;;;;;;11.95;10.95;;;;;;;44.68;20.55;97372.28;4971075;28;20038;-73
2023/07/01 09:36:26;;;;;;;12.40;11.40;;;;;;;45.02;20.68;97360.91;4954471;28;20413;-68
2023/07/01 09:38:52;;;;;;;12.43;11.25;;;;;;;44.89;20.19;97365.22;4955715;28;20519;-68
2023/07/01 09:41:19;;;;;;;12.70;11.70;;;;;;;45.61;20.27;97372.94;4955843;28;20064;-69
2023/07/01 09:43:45;;;;;;;13.73;12.60;;;;;;;46.61;19.34;97363.59;4955649;28;20042;-69
2023/07/01 09:46:10;;;;;;;14.80;13.60;;;;;;;47.08;19.24;97365.22;4955787;28;20160;-69
2023/07/01 09:48:36;;;;;;;13.60;12.27;;;;;;;45.61;19.37;97376.56;4955858;28;20048;-72
2023/07/01 09:51:03;;;;;;;12.77;11.63;;;;;;;43.22;21.11;97366.91;4955599;28;20046;-69
2023/07/01 09:53:34;;;;;;;10.88;9.77;;;;;;;40.78;22.96;97360.00;4955913;28;20057;-68
2023/07/01 09:56:03;;;;;;;10.45;9.55;;;;;;;39.27;24.41;97369.31;4955571;28;20405;-69
2023/07/01 09:58:33;;;;;;;9.70;8.75;;;;;;;39.85;24.06;97365.91;4970712;28;20058;-69
2023/07/01 10:01:02;;;;;;;15.95;10.32;;;;;;;41.18;22.85;97357.81;4955748;28;20042;-68
2023/07/01 10:03:27;;;;;;;12.75;9.20;;;;;;;41.91;22.05;97347.75;4955428;28;20050;-67
2023/07/01 10:05:54;;;;;;;11.35;10.30;;;;;;;42.77;21.36;97362.19;4955642;28;20049;-68
2023/07/01 10:08:20;;;;;;;10.02;9.25;;;;;;;44.34;20.61;97356.69;4955498;28;20057;-68
2023/07/01 10:10:57;;;;;;;12.77;11.88;;;;;;;46.18;18.77;97357.88;4955724;28;20069;-67
2023/07/01 10:13:23;;;;;;;12.85;11.88;;;;;;;47.19;18.03;97354.72;4955538;28;20068;-68
2023/07/01 10:15:49;;;;;;;16.00;14.80;;;;;;;48.27;17.50;97359.59;4954346;28;20042;-66
2023/07/01 10:18:21;;;;;;;18.27;17.05;;;;;;;49.56;15.36;97368.59;4955484;28;20420;-68
2023/07/01 10:20:47;;;;;;;18.05;16.65;;;;;;;48.38;16.60;97353.84;4959785;28;20044;-68
2023/07/01 10:23:13;;;;;;;17.10;15.85;;;;;;;48.03;16.51;97346.38;4974972;28;20058;-68
2023/07/01 10:25:39;;;;;;;17.88;16.67;;;;;;;47.90;16.81;97351.69;4972724;28;20073;-66
2023/07/01 10:28:12;;;;;;;18.00;16.90;;;;;;;48.27;16.19;97351.09;4958899;28;20050;-68
2023/07/01 10:30:43;;;;;;;18.88;17.55;;;;;;;49.31;15.52;97356.75;4958654;28;20416;-73
2023/07/01 10:33:27;;;;;;;;;;;;;;;51.72;14.54;97357.91;4974128;28;20072;-71
2023/07/01 10:36:19;;;;;;;22.17;20.88;;;;;;;50.49;15.31;97340.63;4959003;28;19918;-73
2023/07/01 10:38:44;;;;;;;17.58;16.48;;;;;;;46.79;17.43;97335.44;4956694;28;20054;-73
2023/07/01 10:41:10;;;;;;;13.85;12.75;;;;;;;43.99;19.18;97340.28;4958562;28;20689;-74
2023/07/01 10:43:38;;;;;;;11.80;10.80;;;;;;;41.61;20.04;97336.38;4958629;28;20049;-71
2023/07/01 10:46:12;;;;;;;11.25;10.25;;;;;;;39.45;21.46;97346.41;4957027;28;20042;-69
2023/07/01 10:48:43;;;;;;;9.57;8.70;;;;;;;37.77;23.13;97335.63;4958561;28;20057;-73
2023/07/01 10:51:12;;;;;;;8.75;8.02;;;;;;;36.46;24.70;97341.56;4958657;28;20042;-72
2023/07/01 10:54:04;;;;;;;9.02;8.20;;;;;;;35.54;25.96;97330.81;4958430;28;20409;-73
2023/07/01 10:56:34;;;;;;;8.32;7.63;;;;;;;33.92;28.02;97343.03;4958109;28;20045;-71
2023/07/01 10:59:22;;;;;;;9.25;7.70;;;;;;;33.40;28.79;97334.34;4958609;28;20054;-73
2023/07/01 11:02:02;;;;;;;9.93;7.20;;;;;;;32.39;29.70;97340.13;4958721;28;20034;-74
2023/07/01 11:04:53;;;;;;;8.00;6.45;;;;;;;31.90;30.63;97338.81;4957924;28;20058;-73
2023/07/01 11:07:25;;;;;;;10.98;6.90;;;;;;;30.91;31.65;97346.41;4952952;28;20050;-72
2023/07/01 11:09:52;;;;;;;8.15;7.30;;;;;;;30.12;32.04;97345.97;4957831;28;20054;-72
2023/07/01 11:12:17;;;;;;;9.00;7.05;;;;;;;29.65;32.94;97335.66;4973199;28;20046;-72
2023/07/01 11:14:43;;;;;;;8.40;7.47;;;;;;;29.31;33.58;97370.50;4958183;28;20050;-72
2023/07/01 11:17:10;;;;;;;9.25;7.20;;;;;;;28.98;33.55;97394.84;4969940;28;20042;-71
2023/07/01 11:19:37;;;;;;;13.23;7.47;;;;;;;28.66;34.57;97413.63;4958163;28;20065;-71
2023/07/01 11:22:03;;;;;;;7.57;6.65;;;;;;;28.41;34.56;97398.88;4958003;28;20046;-71
2023/07/01 11:24:32;;;;;;;8.95;7.43;;;;;;;28.25;35.21;97405.50;4973117;28;20053;-73
2023/07/01 11:27:02;;;;;;;9.15;7.93;;;;;;;28.20;36.46;97402.78;4970032;28;20615;-72